CMA-CGM Fort Saint Pierre — FQFM — position and weather

sailwx.info

Track history (hours):
 
Tides and Currents Weather Stations Pressure Air Temp Water Temp Dewpoint Dewpoint Depression Visibility Wind Speed Wind Dir Waves Ship Positions

CMA-CGM Fort Saint Pierre

Last reported at 2017-Feb-19 23:06 UTC. Time now 2017-Feb-21 09:57 UTC.
Position N 41°48' W 026°39'.

Length 197 m; beam 30 m.

Type: Ship (hazmat cat A). MMSI: 226328000.

Date/timePositionNaut miles runAvg speedWind from/ knotsBaromVisibWave heightAir tempDewpointWater temp
2017-Feb-19 23:06N 41°48' W 026°39'1420.7
2017-Feb-19 22:26N 41°42' W 026°56'1920.6
2017-Feb-19 21:32N 41°34' W 027°18'2120.8
2017-Feb-19 20:31N 41°24' W 027°43'2020.6
2017-Feb-19 19:33N 41°15' W 028°07'2820.4
2017-Feb-19 18:10N 41°02' W 028°40'1319.9
2017-Feb-19 17:32N 40°56' W 028°55'2020.5
2017-Feb-19 16:33N 40°47' W 029°18'2220.9
2017-Feb-19 15:31N 40°37' W 029°44'2020.8
2017-Feb-19 14:34N 40°28' W 030°07'2120.5
2017-Feb-19 13:33N 40°20' W 030°32'2020.4
2017-Feb-19 12:33N 40°12' W 030°56'2020.5
2017-Feb-19 11:33N 40°04' W 031°21'1515.5
2017-Feb-19 10:34N 39°57' W 031°39'2 2.2
2017-Feb-19 09:31N 39°55' W 031°41'2 2.4
2017-Feb-19 08:33N 39°53' W 031°43'2 2.4
2017-Feb-19 07:33N 39°52' W 031°45'2 2.3
2017-Feb-19 06:30N 39°50' W 031°46'1 1.4
2017-Feb-19 05:33N 39°48' W 031°47'8 7.4
2017-Feb-19 04:28N 39°45' W 031°57'3718.9
2017-Feb-19 02:32N 39°29' W 032°39'11619.0
2017-Feb-18 20:26N 38°35' W 034°52'  
Track history (hours):
 
Tides and Currents Weather Stations Pressure Air Temp Water Temp Dewpoint Dewpoint Depression Visibility Wind Speed Wind Dir Waves Ship Positions

CMA-CGM Fort Saint Pierre

Last reported at 2017-Feb-19 23:06 UTC. Time now 2017-Feb-21 09:57 UTC.
Position N 41°48' W 026°39'.

Length 197 m; beam 30 m.

Type: Ship (hazmat cat A). MMSI: 226328000.

Date/timePositionNaut miles runAvg speedWind from/ knotsBaromVisibWave heightAir tempDewpointWater temp
2017-Feb-19 23:06N 41°48' W 026°39'1420.7
2017-Feb-19 22:26N 41°42' W 026°56'1920.6
2017-Feb-19 21:32N 41°34' W 027°18'2120.8
2017-Feb-19 20:31N 41°24' W 027°43'2020.6
2017-Feb-19 19:33N 41°15' W 028°07'2820.4
2017-Feb-19 18:10N 41°02' W 028°40'1319.9
2017-Feb-19 17:32N 40°56' W 028°55'2020.5
2017-Feb-19 16:33N 40°47' W 029°18'2220.9
2017-Feb-19 15:31N 40°37' W 029°44'2020.8
2017-Feb-19 14:34N 40°28' W 030°07'2120.5
2017-Feb-19 13:33N 40°20' W 030°32'2020.4
2017-Feb-19 12:33N 40°12' W 030°56'2020.5
2017-Feb-19 11:33N 40°04' W 031°21'1515.5
2017-Feb-19 10:34N 39°57' W 031°39'2 2.2
2017-Feb-19 09:31N 39°55' W 031°41'2 2.4
2017-Feb-19 08:33N 39°53' W 031°43'2 2.4
2017-Feb-19 07:33N 39°52' W 031°45'2 2.3
2017-Feb-19 06:30N 39°50' W 031°46'1 1.4
2017-Feb-19 05:33N 39°48' W 031°47'8 7.4
2017-Feb-19 04:28N 39°45' W 031°57'3718.9
2017-Feb-19 02:32N 39°29' W 032°39'11619.0
2017-Feb-18 20:26N 38°35' W 034°52'  

Dump ship's entire track history